Time,TemperatureF,DewpointF,PressureIn,WindDirection,WindDirectionDegrees,WindSpeedMPH,WindSpeedGustMPH,Humidity,HourlyPrecipIn,Conditions,Clouds,dailyrainin,SolarRadiationWatts/m^2,SoftwareType,DateUTC
2014-03-12 00:00:00,34.5,32.7,29.76,NNE,29,7.0,7.0,93,0.07,,,0.00,0,Wunderground v.1.15,2014-03-12 05:00:00,
2014-03-12 00:10:00,34.3,32.5,29.75,NNW,342,7.0,7.0,93,0.10,,,0.02,0,Wunderground v.1.15,2014-03-12 05:10:00,
2014-03-12 00:15:00,34.1,32.0,29.75,North,351,6.0,6.0,92,0.09,,,0.02,0,Wunderground v.1.15,2014-03-12 05:15:00,
2014-03-12 00:20:00,33.9,32.1,29.75,NNW,346,6.0,6.0,93,0.08,,,0.03,0,Wunderground v.1.15,2014-03-12 05:20:00,
2014-03-12 00:25:00,33.7,31.9,29.76,North,360,7.0,7.0,93,0.10,,,0.04,0,Wunderground v.1.15,2014-03-12 05:25:00,
2014-03-12 00:30:00,33.5,31.7,29.76,NW,326,7.0,7.0,93,0.07,,,0.04,0,Wunderground v.1.15,2014-03-12 05:30:00,
2014-03-12 00:35:00,33.3,31.5,29.76,NNW,341,6.0,7.0,93,0.04,,,0.04,0,Wunderground v.1.15,2014-03-12 05:35:00,
2014-03-12 00:40:00,33.1,31.3,29.76,NNW,338,6.0,7.0,93,0.00,,,0.05,0,Wunderground v.1.15,2014-03-12 05:40:00,
2014-03-12 00:45:00,32.9,31.1,29.77,NNW,336,4.0,4.0,93,0.00,,,0.05,0,Wunderground v.1.15,2014-03-12 05:45:00,
2014-03-12 00:50:00,32.8,31.0,29.76,North,355,4.0,4.0,93,0.00,,,0.05,0,Wunderground v.1.15,2014-03-12 05:50:00,
2014-03-12 00:55:00,32.8,31.3,29.75,North,355,4.0,4.0,94,0.00,,,0.05,0,Wunderground v.1.15,2014-03-12 05:55:00,
2014-03-12 01:00:00,32.7,31.2,29.75,NE,34,4.0,4.0,94,0.00,,,0.05,0,Wunderground v.1.15,2014-03-12 06:00:00,
2014-03-12 01:05:00,32.6,31.1,29.75,North,355,4.0,4.0,94,0.00,,,0.05,0,Wunderground v.1.15,2014-03-12 06:05:00,
2014-03-12 01:10:00,32.6,31.1,29.75,North,355,4.0,4.0,94,0.00,,,0.05,0,Wunderground v.1.15,2014-03-12 06:10:00,
2014-03-12 01:15:00,32.6,31.1,29.76,NW,318,3.0,3.0,94,0.00,,,0.05,0,Wunderground v.1.15,2014-03-12 06:15:00,
2014-03-12 01:20:00,32.5,31.0,29.76,North,355,2.0,5.0,94,0.00,,,0.05,0,Wunderground v.1.15,2014-03-12 06:20:00,
2014-03-12 01:25:00,32.5,31.0,29.77,NW,314,2.0,4.0,94,0.00,,,0.05,0,Wunderground v.1.15,2014-03-12 06:25:00,
2014-03-12 01:30:00,32.4,30.9,29.77,North,351,2.0,4.0,94,0.00,,,0.05,0,Wunderground v.1.15,2014-03-12 06:30:00,
2014-03-12 01:35:00,32.4,30.9,29.76,NW,318,3.0,3.0,94,0.00,,,0.05,0,Wunderground v.1.15,2014-03-12 06:35:00,
2014-03-12 01:40:00,32.4,30.9,29.76,NNW,338,3.0,3.0,94,0.00,,,0.05,0,Wunderground v.1.15,2014-03-12 06:40:00,
2014-03-12 01:45:00,32.4,30.9,29.76,NW,319,3.0,3.0,94,0.00,,,0.05,0,Wunderground v.1.15,2014-03-12 06:45:00,
2014-03-12 01:50:00,32.4,30.9,29.76,NW,325,3.0,4.0,94,0.00,,,0.05,0,Wunderground v.1.15,2014-03-12 06:50:00,
2014-03-12 01:55:00,32.4,30.9,29.76,NW,319,3.0,4.0,94,0.00,,,0.05,0,Wunderground v.1.15,2014-03-12 06:55:00,
2014-03-12 02:00:00,32.3,30.8,29.76,NNW,333,3.0,3.0,94,0.00,,,0.05,0,Wunderground v.1.15,2014-03-12 07:00:00,
2014-03-12 02:05:00,32.3,30.8,29.76,NNW,332,2.0,3.0,94,0.00,,,0.05,0,Wunderground v.1.15,2014-03-12 07:05:00,
2014-03-12 02:10:00,32.3,31.0,29.76,North,5,2.0,3.0,95,0.00,,,0.05,0,Wunderground v.1.15,2014-03-12 07:10:00,
2014-03-12 03:19:00,32.4,31.1,29.76,NNW,344,4.0,4.0,95,0.00,,,0.06,0,Wunderground v.1.15,2014-03-12 08:19:00,
2014-03-12 03:25:00,32.4,31.1,29.76,NNE,30,4.0,4.0,95,0.00,,,0.06,0,Wunderground v.1.15,2014-03-12 08:25:00,
2014-03-12 03:30:00,32.5,31.2,29.76,NNW,329,4.0,5.0,95,0.00,,,0.06,0,Wunderground v.1.15,2014-03-12 08:30:00,
2014-03-12 03:35:00,32.5,31.2,29.77,NNW,330,4.0,5.0,95,0.00,,,0.06,0,Wunderground v.1.15,2014-03-12 08:35:00,
2014-03-12 03:40:00,32.5,31.2,29.76,NNW,344,4.0,5.0,95,0.00,,,0.06,0,Wunderground v.1.15,2014-03-12 08:40:00,
2014-03-12 03:45:00,32.5,31.2,29.77,NW,317,4.0,5.0,95,0.00,,,0.06,0,Wunderground v.1.15,2014-03-12 08:45:00,
2014-03-12 03:49:00,32.5,31.2,29.76,NW,318,4.0,4.0,95,0.00,,,0.06,0,Wunderground v.1.15,2014-03-12 08:49:00,
2014-03-12 03:55:00,32.5,31.2,29.77,NW,319,4.0,4.0,95,0.00,,,0.06,0,Wunderground v.1.15,2014-03-12 08:55:00,
2014-03-12 03:59:00,32.5,31.2,29.77,NW,325,4.0,5.0,95,0.00,,,0.06,0,Wunderground v.1.15,2014-03-12 08:59:00,
2014-03-12 04:05:00,32.5,31.2,29.77,NW,309,4.0,4.0,95,0.00,,,0.06,0,Wunderground v.1.15,2014-03-12 09:05:00,
2014-03-12 04:09:00,32.5,31.2,29.77,NW,317,4.0,4.0,95,0.00,,,0.06,0,Wunderground v.1.15,2014-03-12 09:09:00,
2014-03-12 04:15:00,32.5,31.2,29.77,North,5,4.0,6.0,95,0.00,,,0.06,0,Wunderground v.1.15,2014-03-12 09:15:00,
2014-03-12 04:20:00,32.5,31.0,29.77,NW,315,4.0,6.0,94,0.00,,,0.06,0,Wunderground v.1.15,2014-03-12 09:20:00,
2014-03-12 04:25:00,32.6,31.1,29.77,North,355,3.0,3.0,94,0.00,,,0.06,0,Wunderground v.1.15,2014-03-12 09:25:00,
2014-03-12 04:29:00,32.6,31.1,29.77,NNW,339,3.0,3.0,94,0.00,,,0.06,0,Wunderground v.1.15,2014-03-12 09:29:00,
2014-03-12 04:35:00,32.7,31.2,29.78,NW,315,3.0,3.0,94,0.00,,,0.06,0,Wunderground v.1.15,2014-03-12 09:35:00,
2014-03-12 04:40:00,32.7,31.2,29.78,North,355,3.0,3.0,94,0.00,,,0.06,0,Wunderground v.1.15,2014-03-12 09:40:00,
2014-03-12 04:45:00,32.7,31.2,29.78,NW,316,3.0,3.0,94,0.00,,,0.06,0,Wunderground v.1.15,2014-03-12 09:45:00,
2014-03-12 04:54:00,32.7,30.9,29.79,NW,304,3.0,3.0,93,0.00,,,0.06,0,Wunderground v.1.15,2014-03-12 09:54:00,
2014-03-12 05:00:00,32.7,30.9,29.79,NNW,342,3.0,4.0,93,0.00,,,0.06,0,Wunderground v.1.15,2014-03-12 10:00:00,
2014-03-12 05:05:00,32.7,30.9,29.80,NNW,333,3.0,3.0,93,0.00,,,0.06,0,Wunderground v.1.15,2014-03-12 10:05:00,
2014-03-12 05:15:00,32.7,30.9,29.81,North,355,3.0,3.0,93,0.00,,,0.06,0,Wunderground v.1.15,2014-03-12 10:15:00,
2014-03-12 05:29:00,32.7,30.6,29.82,NNW,348,3.0,3.0,92,0.00,,,0.07,0,Wunderground v.1.15,2014-03-12 10:29:00,
2014-03-12 05:35:00,32.8,30.5,29.83,North,355,3.0,4.0,91,0.00,,,0.07,0,Wunderground v.1.15,2014-03-12 10:35:00,
2014-03-12 05:40:00,32.8,30.5,29.83,North,360,3.0,3.0,91,0.00,,,0.07,0,Wunderground v.1.15,2014-03-12 10:40:00,
2014-03-12 05:45:00,32.8,30.5,29.84,NNW,346,3.0,3.0,91,0.00,,,0.07,0,Wunderground v.1.15,2014-03-12 10:45:00,
2014-03-12 05:49:00,32.9,30.8,29.84,NW,325,3.0,3.0,92,0.00,,,0.07,0,Wunderground v.1.15,2014-03-12 10:49:00,
2014-03-12 05:55:00,32.9,30.8,29.84,NNE,19,4.0,8.0,92,0.00,,,0.07,0,Wunderground v.1.15,2014-03-12 10:55:00,
2014-03-12 06:00:00,33.0,30.9,29.84,NE,40,5.0,6.0,92,0.00,,,0.07,0,Wunderground v.1.15,2014-03-12 11:00:00,
2014-03-12 06:05:00,32.9,30.8,29.85,North,355,5.0,5.0,92,0.00,,,0.07,0,Wunderground v.1.15,2014-03-12 11:05:00,
2014-03-12 06:10:00,32.9,30.8,29.84,NNE,14,4.0,7.0,92,0.00,,,0.07,0,Wunderground v.1.15,2014-03-12 11:10:00,
2014-03-12 06:15:00,32.8,30.7,29.85,NNE,28,4.0,4.0,92,0.00,,,0.07,0,Wunderground v.1.15,2014-03-12 11:15:00,
2014-03-12 06:19:00,32.8,30.7,29.85,NNW,341,4.0,5.0,92,0.00,,,0.07,0,Wunderground v.1.15,2014-03-12 11:19:00,
2014-03-12 06:24:00,32.6,30.5,29.85,NNW,342,5.0,10.0,92,0.00,,,0.07,0,Wunderground v.1.15,2014-03-12 11:24:00,
2014-03-12 06:30:00,32.6,30.5,29.86,NNE,28,5.0,5.0,92,0.00,,,0.07,0,Wunderground v.1.15,2014-03-12 11:30:00,
2014-03-12 06:35:00,32.6,30.5,29.87,North,350,5.0,5.0,92,0.00,,,0.07,0,Wunderground v.1.15,2014-03-12 11:35:00,
2014-03-12 06:39:00,32.5,30.2,29.87,North,355,5.0,5.0,91,0.00,,,0.07,0,Wunderground v.1.15,2014-03-12 11:39:00,
2014-03-12 06:45:00,32.5,30.2,29.87,NE,42,5.0,6.0,91,0.00,,,0.07,0,Wunderground v.1.15,2014-03-12 11:45:00,
2014-03-12 06:50:00,32.4,30.1,29.87,NNE,14,6.0,6.0,91,0.00,,,0.07,0,Wunderground v.1.15,2014-03-12 11:50:00,
2014-03-12 06:54:00,32.4,30.1,29.87,NNE,22,4.0,6.0,91,0.00,,,0.07,0,Wunderground v.1.15,2014-03-12 11:54:00,
2014-03-12 07:00:00,32.3,30.0,29.88,NE,44,4.0,6.0,91,0.00,,,0.07,0,Wunderground v.1.15,2014-03-12 12:00:00,
2014-03-12 07:05:00,32.3,30.0,29.88,NNW,344,4.0,4.0,91,0.00,,,0.07,0,Wunderground v.1.15,2014-03-12 12:05:00,
2014-03-12 07:09:00,32.3,30.0,29.89,NNW,343,5.0,5.0,91,0.00,,,0.07,0,Wunderground v.1.15,2014-03-12 12:09:00,
2014-03-12 07:15:00,32.2,29.9,29.89,North,9,5.0,5.0,91,0.00,,,0.07,0,Wunderground v.1.15,2014-03-12 12:15:00,
2014-03-12 07:25:00,32.0,29.7,29.89,NNW,347,4.0,4.0,91,0.00,,,0.07,0,Wunderground v.1.15,2014-03-12 12:25:00,
2014-03-12 07:30:00,32.0,29.7,29.89,North,355,5.0,5.0,91,0.00,,,0.07,0,Wunderground v.1.15,2014-03-12 12:30:00,
2014-03-12 07:40:00,31.9,29.8,29.90,NW,316,3.0,6.0,92,0.00,,,0.07,0,Wunderground v.1.15,2014-03-12 12:40:00,
2014-03-12 07:45:00,31.8,29.7,29.90,North,351,3.0,4.0,92,0.00,,,0.07,0,Wunderground v.1.15,2014-03-12 12:45:00,
2014-03-12 07:49:00,31.7,29.6,29.91,North,355,3.0,4.0,92,0.00,,,0.07,0,Wunderground v.1.15,2014-03-12 12:49:00,
2014-03-12 07:55:00,31.7,29.9,29.91,NNW,346,2.0,4.0,93,0.00,,,0.07,0,Wunderground v.1.15,2014-03-12 12:55:00,
2014-03-12 08:00:00,31.7,29.9,29.91,NNW,338,2.0,2.0,93,0.00,,,0.07,0,Wunderground v.1.15,2014-03-12 13:00:00,
2014-03-12 08:05:00,31.7,29.9,29.91,NW,323,2.0,3.0,93,0.00,,,0.07,0,Wunderground v.1.15,2014-03-12 13:05:00,
2014-03-12 08:10:00,31.7,29.9,29.92,NW,313,3.0,3.0,93,0.00,,,0.07,0,Wunderground v.1.15,2014-03-12 13:10:00,
2014-03-12 08:15:00,31.7,29.9,29.92,NNW,332,3.0,3.0,93,0.00,,,0.07,0,Wunderground v.1.15,2014-03-12 13:15:00,
2014-03-12 08:19:00,31.7,29.9,29.92,NNW,340,3.0,5.0,93,0.00,,,0.08,0,Wunderground v.1.15,2014-03-12 13:19:00,
2014-03-12 08:25:00,31.7,29.9,29.92,NW,312,3.0,4.0,93,0.00,,,0.08,0,Wunderground v.1.15,2014-03-12 13:25:00,
2014-03-12 08:30:00,31.7,29.9,29.92,NW,326,3.0,5.0,93,0.00,,,0.08,0,Wunderground v.1.15,2014-03-12 13:30:00,
2014-03-12 08:34:00,31.6,29.8,29.93,North,355,3.0,4.0,93,0.00,,,0.08,0,Wunderground v.1.15,2014-03-12 13:34:00,
2014-03-12 08:39:00,31.5,29.4,29.93,North,5,4.0,4.0,92,0.00,,,0.08,0,Wunderground v.1.15,2014-03-12 13:39:00,
2014-03-12 08:45:00,31.4,29.1,29.93,NW,320,5.0,5.0,91,0.00,,,0.08,0,Wunderground v.1.15,2014-03-12 13:45:00,
2014-03-12 08:50:00,31.3,28.7,29.93,NW,319,5.0,5.0,90,0.00,,,0.08,0,Wunderground v.1.15,2014-03-12 13:50:00,
2014-03-12 09:00:00,31.2,28.3,29.94,NW,319,4.0,6.0,89,0.00,,,0.08,0,Wunderground v.1.15,2014-03-12 14:00:00,
2014-03-12 09:05:00,31.2,27.8,29.94,NW,315,5.0,5.0,87,0.00,,,0.08,0,Wunderground v.1.15,2014-03-12 14:05:00,
2014-03-12 09:09:00,31.1,27.7,29.94,NW,314,5.0,5.0,87,0.00,,,0.08,0,Wunderground v.1.15,2014-03-12 14:09:00,
2014-03-12 09:20:00,30.9,27.5,29.95,West,281,5.0,5.0,87,0.00,,,0.08,0,Wunderground v.1.15,2014-03-12 14:20:00,
2014-03-12 09:24:00,30.8,27.1,29.95,NNW,340,5.0,5.0,86,0.00,,,0.08,0,Wunderground v.1.15,2014-03-12 14:24:00,
2014-03-12 09:30:00,30.6,26.6,29.95,WNW,297,5.0,13.0,85,0.00,,,0.08,0,Wunderground v.1.15,2014-03-12 14:30:00,
2014-03-12 09:35:00,30.6,26.6,29.96,NW,325,6.0,13.0,85,0.00,,,0.08,0,Wunderground v.1.15,2014-03-12 14:35:00,
2014-03-12 09:39:00,30.6,26.3,29.95,NNW,327,6.0,6.0,84,0.00,,,0.08,0,Wunderground v.1.15,2014-03-12 14:39:00,
2014-03-12 09:44:00,30.5,26.2,29.96,NW,311,6.0,6.0,84,0.00,,,0.08,0,Wunderground v.1.15,2014-03-12 14:44:00,
2014-03-12 09:50:00,30.5,26.0,29.96,NNW,327,6.0,6.0,83,0.00,,,0.08,0,Wunderground v.1.15,2014-03-12 14:50:00,
2014-03-12 09:55:00,30.5,26.0,29.96,NW,312,6.0,6.0,83,0.00,,,0.08,0,Wunderground v.1.15,2014-03-12 14:55:00,
2014-03-12 10:05:00,31.2,26.9,29.97,NW,316,6.0,6.0,84,0.00,,,0.08,0,Wunderground v.1.15,2014-03-12 15:05:00,
2014-03-12 10:10:00,31.9,27.3,29.97,WNW,295,6.0,12.0,83,0.00,,,0.08,0,Wunderground v.1.15,2014-03-12 15:10:00,
2014-03-12 10:14:00,32.4,27.2,29.97,NNW,327,6.0,8.0,81,0.00,,,0.09,0,Wunderground v.1.15,2014-03-12 15:14:00,
2014-03-12 10:20:00,33.2,28.0,29.97,WNW,291,5.0,8.0,81,0.00,,,0.09,0,Wunderground v.1.15,2014-03-12 15:20:00,
2014-03-12 10:25:00,34.3,28.5,29.97,NW,305,6.0,6.0,79,0.07,,,0.10,0,Wunderground v.1.15,2014-03-12 15:25:00,
2014-03-12 10:29:00,34.4,28.2,29.97,NNW,331,6.0,6.0,78,0.10,,,0.11,0,Wunderground v.1.15,2014-03-12 15:29:00,
2014-03-12 10:35:00,34.0,27.2,29.97,NW,317,6.0,9.0,76,0.13,,,0.12,0,Wunderground v.1.15,2014-03-12 15:35:00,
2014-03-12 10:40:00,34.2,27.7,29.97,NW,315,7.0,8.0,77,0.10,,,0.13,0,Wunderground v.1.15,2014-03-12 15:40:00,
2014-03-12 10:50:00,35.3,28.2,29.98,WNW,294,6.0,10.0,75,0.12,,,0.15,83,Wunderground v.1.15,2014-03-12 15:50:00,
2014-03-12 10:55:00,35.9,28.7,29.98,NW,318,7.0,9.0,75,0.15,,,0.16,118,Wunderground v.1.15,2014-03-12 15:55:00,
2014-03-12 11:00:00,36.0,28.5,29.98,NW,323,7.0,9.0,74,0.15,,,0.18,135,Wunderground v.1.15,2014-03-12 16:00:00,
2014-03-12 11:05:00,36.3,28.5,29.98,North,355,7.0,8.0,73,0.14,,,0.19,146,Wunderground v.1.15,2014-03-12 16:05:00,
2014-03-12 11:10:00,36.2,28.4,29.98,NW,322,7.0,8.0,73,0.15,,,0.20,162,Wunderground v.1.15,2014-03-12 16:10:00,
2014-03-12 11:15:00,36.0,28.2,29.98,WNW,300,7.0,8.0,73,0.13,,,0.21,195,Wunderground v.1.15,2014-03-12 16:15:00,
2014-03-12 11:19:00,36.0,27.8,29.98,NW,315,7.0,8.0,72,0.13,,,0.22,183,Wunderground v.1.15,2014-03-12 16:19:00,
2014-03-12 11:24:00,35.7,28.2,29.99,NW,315,6.0,8.0,74,0.11,,,0.23,114,Wunderground v.1.15,2014-03-12 16:24:00,
2014-03-12 11:30:00,35.7,28.2,29.99,NW,326,6.0,6.0,74,0.11,,,0.24,97,Wunderground v.1.15,2014-03-12 16:30:00,
2014-03-12 11:35:00,35.5,27.7,29.99,NW,324,7.0,7.0,73,0.11,,,0.25,120,Wunderground v.1.15,2014-03-12 16:35:00,
2014-03-12 11:40:00,35.2,27.7,29.99,NW,319,7.0,9.0,74,0.09,,,0.25,93,Wunderground v.1.15,2014-03-12 16:40:00,
2014-03-12 11:45:00,35.0,26.9,29.99,NNW,336,9.0,9.0,72,0.09,,,0.26,121,Wunderground v.1.15,2014-03-12 16:45:00,
2014-03-12 11:50:00,35.2,27.1,30.00,North,355,9.0,9.0,72,0.08,,,0.27,251,Wunderground v.1.15,2014-03-12 16:50:00,
2014-03-12 11:55:00,35.5,28.0,30.00,WNW,298,8.0,8.0,74,0.09,,,0.28,128,Wunderground v.1.15,2014-03-12 16:55:00,
2014-03-12 12:05:00,34.9,27.1,30.00,NNW,329,9.0,9.0,73,0.11,,,0.29,69,Wunderground v.1.15,2014-03-12 17:05:00,
2014-03-12 12:15:00,34.8,26.7,30.01,NNW,337,8.0,8.0,72,0.07,,,0.30,163,Wunderground v.1.15,2014-03-12 17:15:00,
2014-03-12 12:19:00,35.0,27.2,30.01,NW,313,9.0,10.0,73,0.05,,,0.31,258,Wunderground v.1.15,2014-03-12 17:19:00,
2014-03-12 12:25:00,35.2,26.7,30.01,NW,323,10.0,10.0,71,0.05,,,0.31,95,Wunderground v.1.15,2014-03-12 17:25:00,
2014-03-12 12:30:00,35.2,27.1,30.01,WNW,298,9.0,9.0,72,0.07,,,0.32,62,Wunderground v.1.15,2014-03-12 17:30:00,
2014-03-12 12:35:00,35.1,27.0,30.01,NW,311,8.0,10.0,72,0.07,,,0.32,186,Wunderground v.1.15,2014-03-12 17:35:00,
2014-03-12 12:39:00,35.2,26.7,30.01,NNW,328,9.0,14.0,71,0.06,,,0.33,227,Wunderground v.1.15,2014-03-12 17:39:00,
2014-03-12 12:45:00,35.1,27.0,30.01,North,351,8.0,14.0,72,0.06,,,0.33,183,Wunderground v.1.15,2014-03-12 17:45:00,
2014-03-12 12:50:00,34.8,27.0,30.02,NNW,348,7.0,8.0,73,0.06,,,0.34,53,Wunderground v.1.15,2014-03-12 17:50:00,
2014-03-12 12:54:00,34.8,26.4,30.01,NW,307,7.0,8.0,71,0.06,,,0.34,84,Wunderground v.1.15,2014-03-12 17:54:00,
2014-03-12 12:59:00,34.9,26.1,30.02,NW,304,9.0,9.0,70,0.04,,,0.34,128,Wunderground v.1.15,2014-03-12 17:59:00,
2014-03-12 13:05:00,35.1,27.0,30.02,NW,321,9.0,9.0,72,0.04,,,0.35,199,Wunderground v.1.15,2014-03-12 18:05:00,
2014-03-12 13:15:00,35.5,27.4,30.02,WNW,294,8.0,11.0,72,0.04,,,0.35,236,Wunderground v.1.15,2014-03-12 18:15:00,
2014-03-12 13:20:00,35.7,26.9,30.02,NW,313,8.0,11.0,70,0.04,,,0.36,271,Wunderground v.1.15,2014-03-12 18:20:00,
2014-03-12 13:24:00,35.6,26.8,30.02,NW,304,9.0,12.0,70,0.04,,,0.36,33,Wunderground v.1.15,2014-03-12 18:24:00,
2014-03-12 13:30:00,35.1,25.9,30.02,NW,309,10.0,15.0,69,0.04,,,0.36,0,Wunderground v.1.15,2014-03-12 18:30:00,
2014-03-12 13:39:00,34.2,25.1,30.02,North,355,10.0,10.0,69,0.00,,,0.36,14,Wunderground v.1.15,2014-03-12 18:39:00,
2014-03-12 13:44:00,34.1,25.3,30.02,NNW,329,9.0,10.0,70,0.00,,,0.36,0,Wunderground v.1.15,2014-03-12 18:44:00,
2014-03-12 13:50:00,33.9,25.1,30.02,NNW,338,9.0,9.0,70,0.00,,,0.36,0,Wunderground v.1.15,2014-03-12 18:50:00,
2014-03-12 13:55:00,33.8,24.7,30.02,NW,321,8.0,11.0,69,0.00,,,0.37,0,Wunderground v.1.15,2014-03-12 18:55:00,
2014-03-12 13:59:00,33.7,25.0,30.02,NW,313,8.0,8.0,70,0.00,,,0.37,0,Wunderground v.1.15,2014-03-12 18:59:00,
2014-03-12 14:05:00,33.5,24.8,30.02,NW,325,9.0,9.0,70,0.00,,,0.37,0,Wunderground v.1.15,2014-03-12 19:05:00,
2014-03-12 14:09:00,33.6,24.9,30.02,NNW,342,8.0,9.0,70,0.00,,,0.37,0,Wunderground v.1.15,2014-03-12 19:09:00,
2014-03-12 14:15:00,33.7,25.3,30.02,NNW,331,7.0,9.0,71,0.00,,,0.37,0,Wunderground v.1.15,2014-03-12 19:15:00,
2014-03-12 14:25:00,33.6,25.2,30.02,NNW,328,9.0,9.0,71,0.00,,,0.37,0,Wunderground v.1.15,2014-03-12 19:25:00,
2014-03-12 14:30:00,33.6,24.5,30.02,NNW,331,8.0,10.0,69,0.00,,,0.37,0,Wunderground v.1.15,2014-03-12 19:30:00,
2014-03-12 14:34:00,33.6,25.2,30.02,WNW,302,9.0,12.0,71,0.00,,,0.37,0,Wunderground v.1.15,2014-03-12 19:34:00,
2014-03-12 14:39:00,33.7,25.0,30.02,NNW,334,9.0,12.0,70,0.00,,,0.37,0,Wunderground v.1.15,2014-03-12 19:39:00,
2014-03-12 14:45:00,34.0,25.9,30.02,NW,317,8.0,8.0,72,0.00,,,0.37,0,Wunderground v.1.15,2014-03-12 19:45:00,
2014-03-12 14:49:00,34.3,25.5,30.02,NNW,336,8.0,10.0,70,0.00,,,0.37,0,Wunderground v.1.15,2014-03-12 19:49:00,
2014-03-12 14:55:00,34.2,25.1,30.03,NW,314,8.0,10.0,69,0.00,,,0.37,0,Wunderground v.1.15,2014-03-12 19:55:00,
2014-03-12 15:00:00,34.3,25.2,30.03,WNW,286,8.0,8.0,69,0.00,,,0.38,91,Wunderground v.1.15,2014-03-12 20:00:00,
2014-03-12 15:05:00,34.6,25.8,30.03,NW,320,9.0,10.0,70,0.00,,,0.38,47,Wunderground v.1.15,2014-03-12 20:05:00,
2014-03-12 15:10:00,34.6,25.5,30.03,NNW,338,9.0,10.0,69,0.00,,,0.38,0,Wunderground v.1.15,2014-03-12 20:10:00,
2014-03-12 15:14:00,34.4,24.9,30.03,NW,317,8.0,8.0,68,0.00,,,0.38,51,Wunderground v.1.15,2014-03-12 20:14:00,
2014-03-12 15:20:00,34.6,25.8,30.03,WNW,292,7.0,8.0,70,0.00,,,0.38,0,Wunderground v.1.15,2014-03-12 20:20:00,
2014-03-12 15:24:00,34.5,25.4,30.03,North,355,7.0,7.0,69,0.00,,,0.38,0,Wunderground v.1.15,2014-03-12 20:24:00,
2014-03-12 15:29:00,34.2,25.1,30.04,NW,313,9.0,9.0,69,0.00,,,0.38,0,Wunderground v.1.15,2014-03-12 20:29:00,
2014-03-12 15:35:00,34.0,25.6,30.04,NW,304,9.0,9.0,71,0.00,,,0.38,0,Wunderground v.1.15,2014-03-12 20:35:00,
2014-03-12 15:40:00,33.9,24.4,30.04,NNW,331,7.0,10.0,68,0.00,,,0.38,0,Wunderground v.1.15,2014-03-12 20:40:00,
2014-03-12 15:44:00,34.0,24.9,30.04,NNW,330,8.0,10.0,69,0.00,,,0.38,0,Wunderground v.1.15,2014-03-12 20:44:00,
2014-03-12 15:50:00,34.2,25.4,30.04,NW,317,9.0,10.0,70,0.00,,,0.38,0,Wunderground v.1.15,2014-03-12 20:50:00,
2014-03-12 15:59:00,34.1,25.0,30.05,West,263,7.0,7.0,69,0.00,,,0.38,0,Wunderground v.1.15,2014-03-12 20:59:00,
2014-03-12 16:05:00,34.0,24.5,30.05,NNW,336,8.0,8.0,68,0.00,,,0.38,0,Wunderground v.1.15,2014-03-12 21:05:00,
2014-03-12 16:10:00,34.2,25.8,30.05,NNW,332,7.0,8.0,71,0.00,,,0.38,0,Wunderground v.1.15,2014-03-12 21:10:00,
2014-03-12 16:14:00,34.2,24.7,30.05,NNW,342,7.0,8.0,68,0.00,,,0.38,0,Wunderground v.1.15,2014-03-12 21:14:00,
2014-03-12 16:20:00,34.0,24.9,30.05,WNW,297,8.0,14.0,69,0.00,,,0.38,0,Wunderground v.1.15,2014-03-12 21:20:00,
2014-03-12 16:30:00,33.9,24.1,30.05,NW,311,7.0,7.0,67,0.00,,,0.38,0,Wunderground v.1.15,2014-03-12 21:30:00,
2014-03-12 16:39:00,33.9,24.8,30.05,West,267,8.0,11.0,69,0.00,,,0.38,0,Wunderground v.1.15,2014-03-12 21:39:00,
2014-03-12 16:54:00,33.6,24.2,30.06,NNW,346,5.0,6.0,68,0.00,,,0.38,0,Wunderground v.1.15,2014-03-12 21:54:00,
2014-03-12 17:00:00,33.2,24.1,30.06,NNW,343,6.0,6.0,69,0.00,,,0.38,0,Wunderground v.1.15,2014-03-12 22:00:00,
2014-03-12 17:10:00,32.9,24.5,30.06,NW,304,5.0,5.0,71,0.00,,,0.38,0,Wunderground v.1.15,2014-03-12 22:10:00,
2014-03-12 17:15:00,32.9,24.5,30.07,WNW,284,6.0,8.0,71,0.00,,,0.38,0,Wunderground v.1.15,2014-03-12 22:15:00,
2014-03-12 17:19:00,32.9,24.2,30.07,NW,308,7.0,10.0,70,0.00,,,0.38,0,Wunderground v.1.15,2014-03-12 22:19:00,
2014-03-12 17:25:00,32.8,23.7,30.07,NNW,327,8.0,10.0,69,0.00,,,0.38,0,Wunderground v.1.15,2014-03-12 22:25:00,
2014-03-12 17:34:00,32.4,23.7,30.08,NNW,333,8.0,8.0,70,0.00,,,0.38,0,Wunderground v.1.15,2014-03-12 22:34:00,
2014-03-12 17:40:00,32.3,23.6,30.08,NW,315,7.0,8.0,70,0.00,,,0.38,0,Wunderground v.1.15,2014-03-12 22:40:00,
2014-03-12 17:44:00,32.3,23.9,30.08,WNW,290,8.0,8.0,71,0.00,,,0.38,0,Wunderground v.1.15,2014-03-12 22:44:00,
2014-03-12 17:50:00,32.3,23.9,30.08,NW,321,8.0,8.0,71,0.00,,,0.38,0,Wunderground v.1.15,2014-03-12 22:50:00,
2014-03-12 17:54:00,32.2,23.8,30.08,NW,306,7.0,7.0,71,0.00,,,0.38,0,Wunderground v.1.15,2014-03-12 22:54:00,
2014-03-12 18:00:00,32.2,23.8,30.08,NW,314,6.0,7.0,71,0.00,,,0.38,0,Wunderground v.1.15,2014-03-12 23:00:00,
2014-03-12 18:10:00,32.0,23.7,30.08,NW,323,7.0,7.0,71,0.00,,,0.38,0,Wunderground v.1.15,2014-03-12 23:10:00,
2014-03-12 18:20:00,31.9,24.2,30.09,WNW,284,5.0,7.0,73,0.00,,,0.38,0,Wunderground v.1.15,2014-03-12 23:20:00,
2014-03-12 18:30:00,31.6,23.9,30.09,WNW,292,7.0,7.0,73,0.00,,,0.38,0,Wunderground v.1.15,2014-03-12 23:30:00,
2014-03-12 18:35:00,31.5,23.5,30.09,NNW,333,6.0,12.0,72,0.00,,,0.38,0,Wunderground v.1.15,2014-03-12 23:35:00,
2014-03-12 18:39:00,31.3,23.3,30.10,NNW,330,6.0,6.0,72,0.00,,,0.38,0,Wunderground v.1.15,2014-03-12 23:39:00,
2014-03-12 18:45:00,31.2,23.5,30.10,NW,326,5.0,6.0,73,0.00,,,0.38,0,Wunderground v.1.15,2014-03-12 23:45:00,
2014-03-12 18:49:00,31.1,23.8,30.10,NW,311,5.0,5.0,74,0.00,,,0.38,0,Wunderground v.1.15,2014-03-12 23:49:00,
2014-03-12 18:55:00,30.9,23.3,30.11,WNW,303,6.0,6.0,73,0.00,,,0.38,0,Wunderground v.1.15,2014-03-12 23:55:00,
2014-03-12 19:05:00,30.7,23.4,30.11,NNW,339,6.0,6.0,74,0.00,,,0.38,0,Wunderground v.1.15,2014-03-13 00:05:00,
2014-03-12 19:15:00,30.4,23.1,30.11,NNW,341,4.0,4.0,74,0.00,,,0.38,0,Wunderground v.1.15,2014-03-13 00:15:00,
2014-03-12 19:20:00,30.1,22.2,30.11,NW,308,4.0,5.0,72,0.00,,,0.38,0,Wunderground v.1.15,2014-03-13 00:20:00,
2014-03-12 19:25:00,29.9,22.0,30.11,NNW,345,5.0,6.0,72,0.00,,,0.38,0,Wunderground v.1.15,2014-03-13 00:25:00,
2014-03-12 19:30:00,29.8,21.9,30.11,NNW,340,5.0,6.0,72,0.00,,,0.38,0,Wunderground v.1.15,2014-03-13 00:30:00,
2014-03-12 19:45:00,29.4,22.1,30.12,NNW,336,3.0,3.0,74,0.00,,,0.38,0,Wunderground v.1.15,2014-03-13 00:45:00,
2014-03-12 19:50:00,29.3,22.0,30.11,NW,305,3.0,4.0,74,0.00,,,0.38,0,Wunderground v.1.15,2014-03-13 00:50:00,
2014-03-12 19:55:00,29.1,21.8,30.12,NW,314,3.0,3.0,74,0.00,,,0.38,0,Wunderground v.1.15,2014-03-13 00:55:00,
2014-03-12 20:00:00,28.9,22.0,30.12,NW,307,3.0,3.0,75,0.00,,,0.38,0,Wunderground v.1.15,2014-03-13 01:00:00,
2014-03-12 20:05:00,28.8,21.9,30.12,NNW,341,3.0,3.0,75,0.00,,,0.38,0,Wunderground v.1.15,2014-03-13 01:05:00,
2014-03-12 20:15:00,28.5,21.9,30.12,WNW,290,2.0,3.0,76,0.00,,,0.38,0,Wunderground v.1.15,2014-03-13 01:15:00,
2014-03-12 20:25:00,28.3,21.4,30.13,NNW,329,3.0,5.0,75,0.00,,,0.38,0,Wunderground v.1.15,2014-03-13 01:25:00,
2014-03-12 20:30:00,28.2,21.3,30.13,NNW,331,3.0,5.0,75,0.00,,,0.38,0,Wunderground v.1.15,2014-03-13 01:30:00,
2014-03-12 20:40:00,28.0,21.1,30.13,NW,306,2.0,4.0,75,0.00,,,0.38,0,Wunderground v.1.15,2014-03-13 01:40:00,
2014-03-12 20:45:00,27.9,21.0,30.13,NW,317,2.0,4.0,75,0.00,,,0.38,0,Wunderground v.1.15,2014-03-13 01:45:00,
2014-03-12 21:00:00,27.7,21.1,30.13,NNW,338,3.0,3.0,76,0.00,,,0.38,0,Wunderground v.1.15,2014-03-13 02:00:00,
2014-03-12 21:14:00,27.3,21.0,30.14,NNW,330,2.0,3.0,77,0.00,,,0.38,0,Wunderground v.1.15,2014-03-13 02:14:00,
2014-03-12 21:20:00,27.1,20.8,30.14,NNW,347,2.0,3.0,77,0.00,,,0.38,0,Wunderground v.1.15,2014-03-13 02:20:00,
2014-03-12 21:30:00,26.9,21.0,30.14,NW,315,3.0,4.0,78,0.00,,,0.38,0,Wunderground v.1.15,2014-03-13 02:30:00,
2014-03-12 21:35:00,26.8,20.9,30.14,NW,316,2.0,4.0,78,0.00,,,0.38,0,Wunderground v.1.15,2014-03-13 02:35:00,
2014-03-12 21:40:00,26.6,20.7,30.14,NNW,332,2.0,2.0,78,0.00,,,0.38,0,Wunderground v.1.15,2014-03-13 02:40:00,
2014-03-12 21:45:00,26.5,20.9,30.14,NW,311,2.0,2.0,79,0.00,,,0.38,0,Wunderground v.1.15,2014-03-13 02:45:00,
2014-03-12 21:49:00,26.3,20.7,30.14,NW,306,2.0,2.0,79,0.00,,,0.38,0,Wunderground v.1.15,2014-03-13 02:49:00,
2014-03-12 22:15:00,25.8,20.5,30.14,WNW,296,2.0,2.0,80,0.00,,,0.38,0,Wunderground v.1.15,2014-03-13 03:15:00,
2014-03-12 22:25:00,25.6,20.3,30.15,WNW,298,2.0,2.0,80,0.00,,,0.38,0,Wunderground v.1.15,2014-03-13 03:25:00,
2014-03-12 22:30:00,25.5,20.2,30.15,WNW,295,2.0,2.0,80,0.00,,,0.38,0,Wunderground v.1.15,2014-03-13 03:30:00,
2014-03-12 22:40:00,25.3,20.3,30.15,WNW,302,1.0,2.0,81,0.00,,,0.38,0,Wunderground v.1.15,2014-03-13 03:40:00,
2014-03-12 22:45:00,25.2,20.2,30.15,WNW,302,1.0,1.0,81,0.00,,,0.38,0,Wunderground v.1.15,2014-03-13 03:45:00,
2014-03-12 22:50:00,25.0,20.3,30.14,WNW,302,1.0,1.0,82,0.00,,,0.38,0,Wunderground v.1.15,2014-03-13 03:50:00,
2014-03-12 22:54:00,24.9,20.2,30.14,WNW,303,1.0,1.0,82,0.00,,,0.38,0,Wunderground v.1.15,2014-03-13 03:54:00,
2014-03-12 23:00:00,24.7,20.0,30.14,WNW,303,1.0,1.0,82,0.00,,,0.38,0,Wunderground v.1.15,2014-03-13 04:00:00,
2014-03-12 23:10:00,24.4,20.3,30.14,WNW,303,1.0,1.0,84,0.00,,,0.38,0,Wunderground v.1.15,2014-03-13 04:10:00,
2014-03-12 23:15:00,24.3,20.2,30.14,WNW,303,1.0,1.0,84,0.00,,,0.38,0,Wunderground v.1.15,2014-03-13 04:15:00,
2014-03-12 23:19:00,24.2,20.1,30.14,WNW,303,0.0,0.0,84,0.00,,,0.38,0,Wunderground v.1.15,2014-03-13 04:19:00,
2014-03-12 23:25:00,24.0,20.1,30.14,WNW,303,0.0,0.0,85,0.00,,,0.38,0,Wunderground v.1.15,2014-03-13 04:25:00,
2014-03-12 23:30:00,23.9,20.0,30.14,WNW,303,0.0,0.0,85,0.00,,,0.38,0,Wunderground v.1.15,2014-03-13 04:30:00,
2014-03-12 23:35:00,23.7,19.9,30.14,WNW,303,0.0,0.0,85,0.00,,,0.38,0,Wunderground v.1.15,2014-03-13 04:35:00,
2014-03-12 23:39:00,23.6,20.0,30.14,WNW,303,0.0,0.0,86,0.00,,,0.38,0,Wunderground v.1.15,2014-03-13 04:39:00,
2014-03-12 23:45:00,23.4,19.8,30.14,WNW,303,0.0,0.0,86,0.00,,,0.38,0,Wunderground v.1.15,2014-03-13 04:45:00,
2014-03-12 23:50:00,23.3,20.0,30.14,WNW,303,0.0,0.0,87,0.00,,,0.38,0,Wunderground v.1.15,2014-03-13 04:50:00,
2014-03-12 23:55:00,23.1,19.8,30.14,WNW,303,0.0,0.0,87,0.00,,,0.38,0,Wunderground v.1.15,2014-03-13 04:55:00,